Bienvenidos al Sitio de AASANA BOLIVIA
Aeropuerto: Internaciónal El Alto
HORA UTC 01:00
04°C
Humedad: 82%

Fecha: 24/07/2019


Sin Fenómeno
ESTACIÓN:SLLP
LATITUD|LONGITUD:16-08S|68-10W
HORA UTC:01:00
DESCRIPCIÓN: SLLP 240100Z VRB02KT 9999 FEW003 SCT015 FEW017CB BKN200 04/01 Q1033 A3053 625.4 CB/LT SW HR82 NOSIG=
Regional La Paz
EstaciónAerodromoSit. GeograficaDescripción
SLAPApolo14-44S-68-24W SLAP 051900Z NIL=
SLOROruro17-57S-67-04W SLOR 231800Z 36010G20KT 9999 SCT017 FEW020CB 10/04 Q1033 A3052 654.8 HR69 CB/SE/NW AC/CI=
SLLPInternaciónal El Alto16-08S-68-10W SLLP 240100Z VRB02KT 9999 FEW003 SCT015 FEW017CB BKN200 04/01 Q1033 A3053 625.4 CB/LT SW HR82 NOSIG=
SLRYReyes14-18S-67-21W SLRY 232200Z 00000KT 9999 FEW017 SCT070 BKN200 22/22 Q1011 A2988 HR97 RWY WET OPR C206=
SLUYUyuni20-27S-62-52W SLUY 240100Z 35008KT 9999 SCT030 05/M06 Q1030 A3042 655.7 HR46 AC=
SLSBSan Borja14-51S-66-44W SLSB 232300Z 30003KT 9999 BKN080 26/22 Q1010 A2983 HR77 RWY NML =
SLRQRurrenabaque14-25S-67-29W SLRQ 232200Z 27002KT 9999 BKN017 FEW020CB BKN200 25/22 Q1010 A2983 986.0 HR85 CB N/NE AC=
SLCNCharaña17-35S-69-25W
SLCCCopacabana - Tito Yupanqui16-11S-69-05W SLCC 262000Z 18003KT 9999 FEW020 FEW023CB SCT200 14/07 Q1024 A3024 636.7 CB/SH/SW/W/NW AC HR61=
Regional Cochabamba
EstaciónAerodromoSit. GeograficaDescripción
SLAGMonteagudo19-49S-63-58W SLAG 181700Z 01005KT 9999 BKN080 BKN200 21/16 Q1015 A2998 887.5 HR69 CI=
SLPOPotosí19-32S-65-43W SLPO 231700Z 00000KT 4000 VCSH FEW008 BKN015 BKN070 02/01 Q1035 A3058 636.5 HR88 SH N/NE/E/S/SW=
SLALAlcantari19-14S-65-09W SLAL 240100Z 01009KT 9999 FEW010 09/04 Q1025 A3027 701.3 HR70=
SLVMVillamontes21-15S-63-24W SLVM 232200Z 18005KT 9999 OVC070 14/07 Q1019 A3011 HR63 FU=
SLCBCochabamba17-25S-66-10W SLCB 240100Z 01009KT 330V050 9999 SCT027 16/00 Q1023 A3022 750. 1 HR34 AC CI NOSIG=
SLTJTarija21-33S-64-42W SLTJ 240100Z 11006KT 9999 SCT012 BKN070 BKN200 06/04 Q1020 A3013 815.3 HR91=
SLYAYacuiba21-57S-63-39W SLYA 232300Z 00000KT 9999 OVC070 10/07 Q1020 A3013 944.6 HR83=
SLHIChimore16-58S-65-09W SLHI 231900Z 16012KT 9999 BKN015 BKN070 20/20 Q1014 A2995 986.9 HR96=
SLBJBermejo22-46S-64-18W
Regional Santa Cruz
EstaciónAerodromoSit. GeograficaDescripción
SLVGValle Grande18-28S-64-05W SLVG 232100Z 36005KT 9999 SCT017 FEW027CB BKN200 15/13 Q1023 A3021 HR85 CB N RWY NML=
SLJESan José de Chiquitos17-49S-60-44W SLJE 232200Z 00000KT 9999 NSC 29/20 Q1016 A3000 HR61 RWY NML=
SLASAscención de Guarayos15-55S-63-09W SLAS 232300Z 19010KT 9999 NSC 21/16 Q1015 A2997 HR72 CI RWY NML =
SLSISan Ignacio de Velasco16-23S-60-57W SLSI 232300Z 00000KT 9999 NSC 29/18 Q1012 A2988 HR53 RWY NML=
SLETEl Trompillo17-48S-63-10W SLET 232300Z 16005KT 7000 -TSRA BKN017 FEW027CB BKN070 13/12 Q1016 A3000 HR96 CB/TS/LT SW/NW NOSIG=
SLJVSan Javier16-16S-62-28W SLJV 232200Z 18005KT 9999 FEW020 BKN200 23/19 Q1012 A2988 HR76 RWY NML=
SLCPConcepción16-08S-62-01W SLCP 232200Z 36005KT 9999 FEW017 28/20 Q1016 A3000 HR59 RWY NML =
SLVRInternaciónal Viru Viru17-38S-63-08W SLVR 240100Z 18015KT 9999 SCT020 FEW030CB BKN070 14/11 Q1017 A3003 HR85 CB/LT/SW NOSIG=
SLTISan Matías16-20S-58-24W SLTI 232200Z 00000KT 9999 NSC 31/17 Q1016 A3000 HR45 RWY NML=
SLRBRoboré18-19S-59-45W SLRB 232300Z 00000KT 9999 SCT020 26/22 Q1016 A3000 HR77 RWY NML =
SLPSPuerto Suárez18-58S-57-49W SLPS 232300Z 09004KT 9999 NSC 28/22 Q1011 A2986 HR73=
SLCACamiri20-00S-63-31W SLCA 232300Z 18004KT 9999 OVC070 12/06 Q1021 A3015 HR66 RWY WET INOP=
Regional Beni
EstaciónAerodromoSit. GeograficaDescripción
SLRIRiberalta11-00S-66-04W SLRI 232300Z 00000KT 7000 FEW015 FEW020CB BKN200 29/23 Q1011 A2986 HR68 FU CB NE=
SLMGSan Magdalena13-15S-64-36W SLMG 232300Z 00000KT 9999 NSC 30/23 Q1011 A2988 HR69 RWY NML=
SLRASan Ramón13-15S-64-36W SLRA 232200Z 00000KT 9999 NSC 32/21 Q1009 A2982 HR50 CI RWY NML=
SLSRSanta Rosa14-04S-66-47W SLSR 232200Z 32004KT 8000 TS VCSH FEW017 FEW023CB BKN200 Q1009 A2981 HR65 CB/SH S/SW TS S RWY NML=
SLJOSan Joaquin13-03S-64-39W SLJO 232200Z 00000KT 9999 FEW017 SCT200 33/24 Q1011 A2988 HR60 RWY NML=
SLGMGuayaramerín10-53S-65-23W SLGM 232300Z 00000KT 9999 FEW017 FEW023CB SCT200 29/24 Q1011 A2985 HR75 CB E=
SLTRTrinidad14-49S-64-54W SLTR 232300Z 00000KT 9999 SCT015 BKN200 27/24 Q1011 A2986 992.8 HR81 NOSIG=
SLBUBaures13-39S-63-42W SLBU 232200Z NIL=
SLSMSan Ignacio de Moxos14-57S-65-38W SLSM 232200Z 09010KT 9999 SCT017 FEW023CB BKN200 28/24 Q1011 A2985 HR79 CB E/SE RWY NML=
SLSASanta Ana de Yacuma13-45S-65-26W SLSA 232300Z 00000KT 8000 FEW020 BKN200 28/22 Q1010 A2983 HR70 FU=
SLCOCobija11-02S-68-47W SLCO 232300Z 31006KT 9999 FEW025 30/24 Q1010 A2985 983.3 HR68 AC FU=